Time;durP1;ratioP1;P1;durP2;ratioP2;P2;SDS_P1;SDS_P2;PMS_P1;PMS_P2;Temp;Humidity;BMP_temperature;BMP_pressure;BME280_temperature;BME280_humidity;BME280_pressure;Samples;Min_cycle;Max_cycle;Signal;HPM_P1;HPM_P2
2021/01/10 00:00:41;;;;;;;23.43;13.57;;;1.30;99.90;;;;;;5075851;28;20209;-75
2021/01/10 00:03:09;;;;;;;23.80;13.60;;;1.30;99.90;;;;;;5071932;28;20209;-75
2021/01/10 00:05:38;;;;;;;21.77;13.70;;;1.40;99.90;;;;;;5072987;28;20232;-74
2021/01/10 00:08:05;;;;;;;25.70;13.20;;;1.40;99.90;;;;;;5071675;28;20304;-73
2021/01/10 00:10:32;;;;;;;24.77;13.57;;;1.40;99.90;;;;;;5073857;28;20209;-73
2021/01/10 00:13:00;;;;;;;26.23;13.43;;;1.40;99.90;;;;;;5074896;28;20236;-73
2021/01/10 00:15:27;;;;;;;24.60;14.23;;;1.40;99.90;;;;;;5074629;28;20359;-75
2021/01/10 00:17:53;;;;;;;25.50;13.77;;;1.40;99.90;;;;;;5075697;28;20252;-75
2021/01/10 00:20:21;;;;;;;24.47;14.13;;;1.40;99.90;;;;;;5075158;28;20211;-76
2021/01/10 00:22:51;;;;;;;27.97;14.57;;;1.40;99.90;;;;;;5070885;28;20254;-75
2021/01/10 00:25:18;;;;;;;22.77;13.40;;;1.40;99.90;;;;;;5072278;28;20205;-74
2021/01/10 00:27:44;;;;;;;24.00;14.27;;;1.40;99.90;;;;;;5075245;28;20312;-75
2021/01/10 00:30:14;;;;;;;25.27;15.17;;;1.40;99.90;;;;;;5074440;28;20696;-75
2021/01/10 00:32:41;;;;;;;25.33;13.83;;;1.40;99.90;;;;;;5073126;28;20219;-75
2021/01/10 00:35:08;;;;;;;24.17;13.13;;;1.40;99.90;;;;;;5072227;28;20296;-74
2021/01/10 00:37:36;;;;;;;26.30;14.27;;;1.40;99.90;;;;;;5070384;28;20239;-75
2021/01/10 00:40:02;;;;;;;23.80;13.47;;;1.40;99.90;;;;;;5074721;28;20240;-75
2021/01/10 00:42:29;;;;;;;24.13;13.27;;;1.40;99.90;;;;;;5071911;28;20295;-75
2021/01/10 00:44:57;;;;;;;27.70;15.17;;;1.40;99.90;;;;;;5073796;28;20198;-76
2021/01/10 00:47:24;;;;;;;24.97;14.50;;;1.40;99.90;;;;;;5071674;28;20287;-76
2021/01/10 00:49:50;;;;;;;26.23;14.23;;;1.40;99.90;;;;;;5071593;28;20213;-76
2021/01/10 00:52:17;;;;;;;25.20;14.13;;;1.40;99.90;;;;;;5071459;28;20216;-76
2021/01/10 00:54:44;;;;;;;24.90;14.30;;;1.40;99.90;;;;;;5070667;28;20324;-75
2021/01/10 00:57:10;;;;;;;25.20;14.80;;;1.40;99.90;;;;;;5072190;28;20243;-76
2021/01/10 00:59:38;;;;;;;25.93;14.60;;;1.30;99.90;;;;;;5074595;28;20292;-75
2021/01/10 01:02:05;;;;;;;28.27;15.47;;;1.30;99.90;;;;;;5074901;28;20613;-75
2021/01/10 01:04:31;;;;;;;27.87;15.20;;;1.30;99.90;;;;;;5075591;28;20317;-75
2021/01/10 01:06:58;;;;;;;27.67;15.10;;;1.40;99.90;;;;;;5072487;28;20258;-75
2021/01/10 01:09:24;;;;;;;28.77;14.70;;;1.30;99.90;;;;;;5072625;28;20215;-74
2021/01/10 01:11:52;;;;;;;25.10;14.97;;;1.30;99.90;;;;;;5070734;28;20225;-74
2021/01/10 01:14:18;;;;;;;25.23;14.03;;;1.30;99.90;;;;;;5069259;28;20244;-74
2021/01/10 01:16:45;;;;;;;28.10;15.10;;;1.40;99.90;;;;;;5070680;28;20251;-75
2021/01/10 01:19:11;;;;;;;31.70;16.07;;;1.40;99.90;;;;;;5071505;28;20300;-75
2021/01/10 01:21:38;;;;;;;29.47;15.20;;;1.40;99.90;;;;;;5074107;28;20296;-74
2021/01/10 01:24:05;;;;;;;22.60;14.00;;;1.40;99.90;;;;;;5068536;28;20209;-74
2021/01/10 01:26:33;;;;;;;23.57;14.83;;;1.40;99.90;;;;;;5070042;28;20665;-74
2021/01/10 01:29:00;;;;;;;28.43;15.63;;;1.40;99.90;;;;;;5073540;28;20225;-75
2021/01/10 01:31:29;;;;;;;27.00;14.30;;;1.50;99.90;;;;;;5071775;28;20240;-74
2021/01/10 01:33:56;;;;;;;25.00;13.83;;;1.50;99.90;;;;;;5072042;28;20241;-74
2021/01/10 01:36:24;;;;;;;29.07;15.47;;;1.60;99.90;;;;;;5073892;28;20290;-74
2021/01/10 01:38:51;;;;;;;27.70;15.63;;;1.50;99.90;;;;;;5071224;28;20202;-74
2021/01/10 01:41:18;;;;;;;27.57;15.53;;;1.50;99.90;;;;;;5071615;28;20209;-73
2021/01/10 01:43:45;;;;;;;28.47;15.00;;;1.50;99.90;;;;;;5070781;28;20201;-74
2021/01/10 01:46:22;;;;;;;28.10;14.20;;;1.50;99.90;;;;;;5074312;28;20288;-74
2021/01/10 01:48:49;;;;;;;25.73;14.23;;;1.50;99.90;;;;;;5074051;28;20216;-74
2021/01/10 01:51:15;;;;;;;28.90;14.43;;;1.50;99.90;;;;;;5073777;28;20204;-74
2021/01/10 01:53:42;;;;;;;28.20;14.70;;;1.50;99.90;;;;;;5074067;28;20697;-75
2021/01/10 01:56:09;;;;;;;28.37;14.97;;;1.50;99.90;;;;;;5068449;28;20235;-74
2021/01/10 01:58:35;;;;;;;28.67;15.40;;;1.60;99.90;;;;;;5073645;28;20261;-74
2021/01/10 02:01:02;;;;;;;28.37;15.43;;;1.50;99.90;;;;;;5072244;28;20680;-74
2021/01/10 02:03:34;;;;;;;30.13;15.70;;;1.50;99.90;;;;;;5073097;28;20209;-74
2021/01/10 02:06:09;;;;;;;27.47;15.70;;;1.50;99.90;;;;;;5070573;28;20568;-75
2021/01/10 02:08:38;;;;;;;28.30;15.07;;;1.50;99.90;;;;;;5070295;28;20231;-74
2021/01/10 02:11:07;;;;;;;32.17;15.50;;;1.50;99.90;;;;;;5070949;28;20206;-74
2021/01/10 02:13:36;;;;;;;28.37;15.87;;;1.50;99.90;;;;;;5068952;28;20668;-75
2021/01/10 02:16:04;;;;;;;29.87;15.70;;;1.50;99.90;;;;;;5072578;28;20317;-75
2021/01/10 02:18:33;;;;;;;27.07;14.83;;;1.50;99.90;;;;;;5068927;28;20259;-76
2021/01/10 02:21:04;;;;;;;30.40;15.60;;;1.50;99.90;;;;;;5072685;28;20210;-75
2021/01/10 02:23:32;;;;;;;26.73;14.60;;;1.50;99.90;;;;;;5067336;28;20240;-74
2021/01/10 02:26:01;;;;;;;28.67;15.43;;;1.50;99.90;;;;;;5069148;28;20212;-75
2021/01/10 02:28:30;;;;;;;30.20;15.63;;;1.50;99.90;;;;;;5071971;28;20233;-75
2021/01/10 02:30:59;;;;;;;28.67;14.80;;;1.50;99.90;;;;;;5073561;28;20627;-74
2021/01/10 02:33:38;;;;;;;30.83;16.73;;;1.50;99.90;;;;;;5072962;28;20292;-75
2021/01/10 02:36:09;;;;;;;32.27;16.57;;;1.50;99.90;;;;;;5074346;28;20205;-75
2021/01/10 02:38:43;;;;;;;31.37;16.23;;;1.50;99.90;;;;;;5067404;28;20204;-74
2021/01/10 02:41:22;;;;;;;29.87;16.07;;;1.50;99.90;;;;;;5072360;28;20284;-75
2021/01/10 02:44:01;;;;;;;35.23;16.80;;;1.50;99.90;;;;;;5070050;28;20197;-74
2021/01/10 02:46:28;;;;;;;31.60;15.73;;;1.50;99.90;;;;;;5073908;28;20304;-74
2021/01/10 02:48:55;;;;;;;33.33;15.80;;;1.50;99.90;;;;;;5072108;28;20220;-74
2021/01/10 02:51:22;;;;;;;33.37;16.07;;;1.50;99.90;;;;;;5073252;28;20295;-74
2021/01/10 02:53:48;;;;;;;32.50;15.77;;;1.50;99.90;;;;;;5073103;28;20193;-74
2021/01/10 02:56:15;;;;;;;32.97;16.00;;;1.50;99.90;;;;;;5070554;28;20209;-74
2021/01/10 02:58:43;;;;;;;36.80;16.93;;;1.50;99.90;;;;;;5072275;28;20215;-74
2021/01/10 03:01:12;;;;;;;33.73;16.00;;;1.50;99.90;;;;;;5073720;28;20672;-74
2021/01/10 03:03:39;;;;;;;30.83;14.57;;;1.50;99.90;;;;;;5070363;28;20725;-73
2021/01/10 03:06:06;;;;;;;36.00;16.93;;;1.50;99.90;;;;;;5067918;28;20248;-73
2021/01/10 03:08:33;;;;;;;35.73;17.93;;;1.60;99.90;;;;;;5069828;28;20217;-74
2021/01/10 03:11:00;;;;;;;37.70;17.10;;;1.50;99.90;;;;;;5070229;28;20213;-73
2021/01/10 03:13:28;;;;;;;38.77;16.90;;;1.50;99.90;;;;;;5066827;28;20205;-74
2021/01/10 03:15:54;;;;;;;36.10;16.30;;;1.50;99.90;;;;;;5071735;28;20244;-74
2021/01/10 03:18:22;;;;;;;34.40;16.93;;;1.40;99.90;;;;;;5071789;28;20492;-74
2021/01/10 03:20:49;;;;;;;34.50;17.50;;;1.60;99.90;;;;;;5070810;28;20213;-74
2021/01/10 03:23:16;;;;;;;36.60;16.47;;;1.50;99.90;;;;;;5071903;28;20304;-74
2021/01/10 03:25:43;;;;;;;33.37;15.97;;;1.50;99.90;;;;;;5069051;28;20209;-74
2021/01/10 03:28:09;;;;;;;34.40;15.83;;;1.50;99.90;;;;;;5069398;28;20319;-74
2021/01/10 03:30:37;;;;;;;33.93;16.27;;;1.50;99.90;;;;;;5071379;28;20296;-74
2021/01/10 03:33:04;;;;;;;31.57;15.77;;;1.50;99.90;;;;;;5069539;28;20771;-73
2021/01/10 03:35:31;;;;;;;34.07;16.87;;;1.50;99.90;;;;;;5071419;28;20240;-74
2021/01/10 03:38:01;;;;;;;38.73;17.77;;;1.60;99.90;;;;;;5071630;28;20212;-73
2021/01/10 03:40:27;;;;;;;37.47;17.27;;;1.50;99.90;;;;;;5071619;28;20209;-74
2021/01/10 03:42:54;;;;;;;35.93;17.30;;;1.50;99.90;;;;;;5066825;28;20735;-74
2021/01/10 03:45:20;;;;;;;34.90;17.27;;;1.50;99.90;;;;;;5067589;28;20217;-74
2021/01/10 03:47:47;;;;;;;35.83;16.53;;;1.50;99.90;;;;;;5070101;28;20243;-74
2021/01/10 03:50:14;;;;;;;35.37;16.53;;;1.60;99.90;;;;;;5070952;28;21010;-75
2021/01/10 03:52:40;;;;;;;33.43;16.83;;;1.60;99.90;;;;;;5072407;28;20205;-74
2021/01/10 03:55:08;;;;;;;31.20;16.50;;;1.50;99.90;;;;;;5074964;28;20295;-75
2021/01/10 03:57:37;;;;;;;40.17;17.40;;;1.50;99.90;;;;;;5066316;28;20229;-74
2021/01/10 04:00:06;;;;;;;36.97;17.27;;;1.50;99.90;;;;;;5074562;28;20220;-74
2021/01/10 04:02:32;;;;;;;37.07;17.20;;;1.50;99.90;;;;;;5074451;28;20207;-74
2021/01/10 04:04:59;;;;;;;36.03;16.70;;;1.50;99.90;;;;;;5075397;28;20304;-75
2021/01/10 04:07:26;;;;;;;34.93;16.70;;;1.50;99.90;;;;;;5074225;28;20246;-75
2021/01/10 04:09:52;;;;;;;39.37;17.03;;;1.50;99.90;;;;;;5074842;28;20250;-74
2021/01/10 04:12:19;;;;;;;39.83;17.50;;;1.50;99.90;;;;;;5071618;28;20319;-74
2021/01/10 04:14:45;;;;;;;35.97;16.93;;;1.50;99.90;;;;;;5074170;28;20217;-75
2021/01/10 04:17:11;;;;;;;35.73;17.50;;;1.50;99.90;;;;;;5072830;28;20219;-75
2021/01/10 04:19:38;;;;;;;33.90;16.80;;;1.50;99.90;;;;;;5074614;28;20233;-75
2021/01/10 04:22:05;;;;;;;36.13;19.07;;;1.50;99.90;;;;;;5073030;28;20214;-75
2021/01/10 04:24:31;;;;;;;38.73;17.83;;;1.50;99.90;;;;;;5074087;28;20201;-74
2021/01/10 04:26:59;;;;;;;38.53;17.63;;;1.60;99.90;;;;;;5071933;28;21363;-75
2021/01/10 04:29:26;;;;;;;34.57;16.60;;;1.60;99.90;;;;;;5071443;28;20251;-75
2021/01/10 04:31:56;;;;;;;37.33;17.93;;;1.60;99.90;;;;;;5071857;28;20276;-76
2021/01/10 04:34:22;;;;;;;37.90;18.60;;;1.60;99.90;;;;;;5074315;28;20205;-74
2021/01/10 04:36:48;;;;;;;36.30;16.77;;;1.60;99.90;;;;;;5074779;28;20609;-75
2021/01/10 04:39:16;;;;;;;34.77;16.87;;;1.70;99.90;;;;;;5072067;28;20308;-74
2021/01/10 04:41:44;;;;;;;35.70;16.27;;;1.70;99.90;;;;;;5074875;28;20276;-74
2021/01/10 04:44:11;;;;;;;41.23;16.93;;;1.60;99.90;;;;;;5073661;28;20203;-73
2021/01/10 04:46:39;;;;;;;34.10;16.23;;;1.60;99.90;;;;;;5068736;28;20214;-73
2021/01/10 04:49:06;;;;;;;32.90;17.10;;;1.60;99.90;;;;;;5071065;28;20273;-74
2021/01/10 04:51:34;;;;;;;38.20;17.07;;;1.60;99.90;;;;;;5074236;28;20254;-73
2021/01/10 04:54:03;;;;;;;34.30;17.37;;;1.60;99.90;;;;;;5068366;28;20212;-74
2021/01/10 04:56:31;;;;;;;43.93;17.27;;;1.60;99.90;;;;;;5070706;28;20227;-73
2021/01/10 04:59:01;;;;;;;38.20;17.27;;;1.70;99.90;;;;;;5068550;28;20216;-73
2021/01/10 05:01:35;;;;;;;33.53;16.37;;;1.60;99.90;;;;;;5070886;28;20574;-72
2021/01/10 05:04:03;;;;;;;38.50;17.70;;;1.60;99.90;;;;;;5070162;28;20223;-73
2021/01/10 05:06:32;;;;;;;38.30;17.70;;;1.60;99.90;;;;;;5072823;28;20223;-73
2021/01/10 05:09:00;;;;;;;35.57;16.87;;;1.70;99.90;;;;;;5072478;28;20229;-73
2021/01/10 05:11:27;;;;;;;32.93;16.00;;;1.70;99.90;;;;;;5072829;28;20233;-74
2021/01/10 05:13:55;;;;;;;35.87;16.90;;;1.70;99.90;;;;;;5069012;28;20212;-73
2021/01/10 05:16:22;;;;;;;35.47;16.53;;;1.70;99.90;;;;;;5070362;28;20766;-74
2021/01/10 05:18:49;;;;;;;35.43;16.60;;;1.70;99.90;;;;;;5073829;28;20209;-73
2021/01/10 05:21:16;;;;;;;35.30;16.80;;;1.70;99.90;;;;;;5073007;28;20255;-73
2021/01/10 05:23:42;;;;;;;30.97;15.50;;;1.70;99.90;;;;;;5072688;28;20274;-74
2021/01/10 05:26:09;;;;;;;35.47;16.93;;;1.60;99.90;;;;;;5073477;28;20209;-75
2021/01/10 05:28:36;;;;;;;36.00;17.40;;;1.60;99.90;;;;;;5073730;28;20277;-74
2021/01/10 05:31:09;;;;;;;30.73;15.83;;;1.70;99.90;;;;;;5073084;28;20589;-76
2021/01/10 05:33:48;;;;;;;37.90;16.77;;;1.60;99.90;;;;;;5069548;28;20301;-74
2021/01/10 05:36:26;;;;;;;35.63;16.43;;;1.70;99.90;;;;;;5073005;28;20572;-74
2021/01/10 05:38:53;;;;;;;36.43;16.10;;;1.70;99.90;;;;;;5070381;28;20354;-74
2021/01/10 05:41:23;;;;;;;31.30;15.20;;;1.70;99.90;;;;;;5075605;28;20210;-74
2021/01/10 05:44:00;;;;;;;32.50;15.83;;;1.70;99.90;;;;;;5072830;28;20213;-74
2021/01/10 05:46:30;;;;;;;35.97;16.90;;;1.70;99.90;;;;;;5070655;28;20223;-74
2021/01/10 05:48:58;;;;;;;40.43;16.57;;;1.70;99.90;;;;;;5073999;28;20686;-74
2021/01/10 05:51:30;;;;;;;38.50;17.60;;;1.70;99.90;;;;;;5073073;28;20328;-75
2021/01/10 05:53:57;;;;;;;35.47;16.97;;;1.70;99.90;;;;;;5069201;28;20351;-74
2021/01/10 05:56:23;;;;;;;36.93;15.67;;;1.70;99.90;;;;;;5070512;28;20296;-75
2021/01/10 05:58:59;;;;;;;37.47;16.77;;;1.70;99.90;;;;;;5073358;28;20198;-74
2021/01/10 06:01:26;;;;;;;32.60;16.23;;;1.60;99.90;;;;;;5076532;28;20213;-74
2021/01/10 06:03:53;;;;;;;32.47;14.97;;;1.70;99.90;;;;;;5067940;28;20293;-75
2021/01/10 06:06:20;;;;;;;32.83;16.27;;;1.70;99.90;;;;;;5070337;28;20268;-75
2021/01/10 06:08:47;;;;;;;33.30;16.33;;;1.70;99.90;;;;;;5073748;28;20229;-75
2021/01/10 06:11:31;;;;;;;32.53;16.00;;;1.60;99.90;;;;;;5070660;28;20257;-72
2021/01/10 06:13:59;;;;;;;32.00;15.43;;;1.60;99.90;;;;;;5071330;28;20242;-73
2021/01/10 06:16:26;;;;;;;34.10;15.50;;;1.70;99.90;;;;;;5072694;28;20327;-73
2021/01/10 06:18:56;;;;;;;32.77;16.10;;;1.60;99.90;;;;;;5072665;28;20639;-73
2021/01/10 06:21:25;;;;;;;33.63;16.53;;;1.70;99.90;;;;;;5072425;28;20232;-74
2021/01/10 06:23:55;;;;;;;34.53;15.07;;;1.60;99.90;;;;;;5070029;28;20219;-73
2021/01/10 06:26:23;;;;;;;31.93;15.50;;;1.70;99.90;;;;;;5071988;28;20205;-75
2021/01/10 06:28:58;;;;;;;31.33;16.00;;;1.70;99.90;;;;;;5071612;28;20319;-74
2021/01/10 06:31:27;;;;;;;35.57;14.73;;;1.70;99.90;;;;;;5072892;28;20300;-73
2021/01/10 06:34:03;;;;;;;36.07;16.53;;;1.80;99.90;;;;;;5069641;28;20232;-74
2021/01/10 06:36:31;;;;;;;30.03;15.67;;;1.70;99.90;;;;;;5071278;28;20547;-74
2021/01/10 06:39:08;;;;;;;35.67;15.17;;;1.70;99.90;;;;;;5072065;28;20201;-74
2021/01/10 06:42:13;;;;;;;32.60;14.73;;;1.70;99.90;;;;;;5065800;28;20692;-74
2021/01/10 06:44:42;;;;;;;31.13;14.67;;;1.70;99.90;;;;;;5070152;28;20253;-73
2021/01/10 06:47:20;;;;;;;29.53;15.70;;;1.70;99.90;;;;;;5066139;28;20237;-74
2021/01/10 06:49:47;;;;;;;29.77;15.07;;;1.70;99.90;;;;;;5070524;28;20225;-75
2021/01/10 06:52:17;;;;;;;34.53;15.33;;;1.70;99.90;;;;;;5069744;28;20236;-74
2021/01/10 06:54:46;;;;;;;33.20;15.27;;;1.70;99.90;;;;;;5066747;28;20613;-74
2021/01/10 06:57:13;;;;;;;32.23;15.83;;;1.70;99.90;;;;;;5064652;28;20641;-76
2021/01/10 06:59:56;;;;;;;29.53;14.97;;;1.70;99.90;;;;;;5070037;28;20209;-75
2021/01/10 07:02:23;;;;;;;36.23;15.20;;;1.80;99.90;;;;;;5071480;28;20403;-75
2021/01/10 07:05:09;;;;;;;31.70;15.27;;;1.80;99.90;;;;;;5067896;28;20202;-75
2021/01/10 07:07:41;;;;;;;31.97;15.73;;;1.90;99.90;;;;;;5062175;28;20258;-75
2021/01/10 07:10:10;;;;;;;33.03;15.70;;;1.90;99.90;;;;;;5069904;28;20665;-76
2021/01/10 07:12:38;;;;;;;28.23;13.97;;;2.00;99.90;;;;;;5073666;28;20243;-75
2021/01/10 07:15:31;;;;;;;33.00;15.83;;;2.00;99.90;;;;;;5069279;28;20205;-76
2021/01/10 07:18:11;;;;;;;30.53;14.40;;;2.00;99.90;;;;;;5033792;28;20212;-76
2021/01/10 07:20:41;;;;;;;30.27;14.60;;;2.00;99.90;;;;;;5073672;28;20197;-76
2021/01/10 07:23:33;;;;;;;26.13;14.73;;;2.10;99.90;;;;;;5073174;28;20205;-76
2021/01/10 07:26:01;;;;;;;31.20;14.93;;;2.10;99.90;;;;;;5072270;28;20280;-75
2021/01/10 07:28:42;;;;;;;28.33;14.80;;;2.10;99.90;;;;;;5077432;28;20232;-77
2021/01/10 07:31:18;;;;;;;31.50;15.47;;;2.10;99.90;;;;;;5067805;28;20212;-75
2021/01/10 07:33:46;;;;;;;34.13;16.10;;;2.10;99.90;;;;;;5076420;28;20620;-77
2021/01/10 07:36:14;;;;;;;30.47;14.70;;;2.20;99.90;;;;;;5074682;28;20229;-77
2021/01/10 07:38:42;;;;;;;31.37;14.50;;;2.20;99.90;;;;;;5077451;28;20580;-74
2021/01/10 07:41:27;;;;;;;29.50;14.77;;;2.20;99.90;;;;;;5075207;28;20296;-75
2021/01/10 07:43:55;;;;;;;28.97;13.93;;;2.30;99.90;;;;;;5073250;28;20725;-75
2021/01/10 07:46:52;;;;;;;28.47;13.60;;;2.20;99.90;;;;;;5073993;28;20237;-75
2021/01/10 07:49:19;;;;;;;29.53;14.97;;;2.20;99.90;;;;;;5079369;28;20229;-75
2021/01/10 07:51:47;;;;;;;27.43;13.63;;;2.20;99.90;;;;;;5076913;28;20713;-75
2021/01/10 07:54:13;;;;;;;22.87;12.63;;;2.20;99.90;;;;;;5072697;28;20281;-75
2021/01/10 07:56:40;;;;;;;29.20;14.20;;;2.20;99.90;;;;;;5075042;28;20220;-74
2021/01/10 07:59:13;;;;;;;24.47;13.97;;;2.20;99.90;;;;;;5076649;28;20300;-75
2021/01/10 08:01:50;;;;;;;26.73;14.43;;;2.20;99.90;;;;;;5075877;28;20201;-76
2021/01/10 08:04:33;;;;;;;24.77;13.60;;;2.20;99.90;;;;;;5077400;28;20279;-75
2021/01/10 08:07:03;;;;;;;23.90;13.73;;;2.20;99.90;;;;;;5078131;28;20672;-76
2021/01/10 08:09:31;;;;;;;24.37;13.30;;;2.20;99.90;;;;;;5075968;28;20225;-77
2021/01/10 08:11:58;;;;;;;25.00;13.33;;;2.30;99.90;;;;;;5076403;28;20232;-77
2021/01/10 08:14:25;;;;;;;26.10;13.33;;;2.20;99.90;;;;;;5075941;28;20574;-75
2021/01/10 08:16:51;;;;;;;23.57;13.37;;;2.20;99.90;;;;;;5076360;28;20239;-74
2021/01/10 08:19:18;;;;;;;26.13;13.37;;;2.30;99.90;;;;;;5076211;28;20205;-76
2021/01/10 08:21:44;;;;;;;25.97;13.30;;;2.30;99.90;;;;;;5075966;28;20205;-74
2021/01/10 08:24:15;;;;;;;30.20;13.70;;;2.30;99.90;;;;;;5063007;28;20205;-74
2021/01/10 08:26:43;;;;;;;27.63;14.63;;;2.40;99.90;;;;;;5073969;28;20210;-74
2021/01/10 08:29:10;;;;;;;27.47;14.33;;;2.40;99.90;;;;;;5073436;28;20314;-76
2021/01/10 08:31:38;;;;;;;22.10;13.37;;;2.40;99.90;;;;;;5075264;28;20614;-76
2021/01/10 08:34:06;;;;;;;24.73;13.73;;;2.40;99.90;;;;;;5075517;28;20212;-75
2021/01/10 08:36:33;;;;;;;24.43;13.13;;;2.50;99.90;;;;;;5075760;28;20213;-75
2021/01/10 08:39:01;;;;;;;25.43;15.03;;;2.90;99.90;;;;;;5075508;28;20280;-71
2021/01/10 08:41:30;;;;;;;24.63;12.77;;;2.50;99.90;;;;;;5074892;28;20201;-71
2021/01/10 08:43:59;;;;;;;26.10;13.57;;;2.40;99.90;;;;;;5067539;28;20205;-73
2021/01/10 08:46:26;;;;;;;23.30;13.00;;;2.50;99.90;;;;;;5075008;28;20557;-73
2021/01/10 08:48:53;;;;;;;25.73;13.93;;;2.50;99.90;;;;;;5073453;28;20221;-73
2021/01/10 08:51:43;;;;;;;25.63;14.03;;;2.60;99.90;;;;;;5077742;28;20566;-72
2021/01/10 08:54:11;;;;;;;20.13;12.10;;;2.60;99.90;;;;;;5059986;28;20727;-73
2021/01/10 08:56:40;;;;;;;24.37;13.50;;;2.60;99.90;;;;;;5074171;28;20212;-72
2021/01/10 08:59:08;;;;;;;23.47;13.20;;;2.70;99.90;;;;;;5067864;28;20607;-71
2021/01/10 09:01:35;;;;;;;27.47;14.13;;;2.70;99.90;;;;;;5074604;28;20618;-72
2021/01/10 09:04:04;;;;;;;23.00;12.97;;;2.90;99.90;;;;;;5074345;28;20714;-73
2021/01/10 09:06:57;;;;;;;24.10;14.30;;;2.80;99.90;;;;;;5074688;28;20282;-73
2021/01/10 09:09:33;;;;;;;21.47;12.60;;;2.80;99.90;;;;;;5070834;28;20225;-71
2021/01/10 09:12:09;;;;;;;25.77;14.77;;;2.80;99.90;;;;;;5068510;28;20225;-71
2021/01/10 09:14:41;;;;;;;24.47;13.67;;;2.80;99.90;;;;;;5069862;28;20197;-74
2021/01/10 09:17:11;;;;;;;21.83;13.17;;;2.80;99.90;;;;;;5071944;28;20717;-73
2021/01/10 09:19:38;;;;;;;23.63;13.70;;;2.80;99.90;;;;;;5072771;28;20292;-72
2021/01/10 09:22:05;;;;;;;21.37;12.33;;;2.80;99.90;;;;;;5072105;28;20605;-73
2021/01/10 09:24:33;;;;;;;25.63;13.60;;;2.70;99.90;;;;;;5069788;28;20209;-73
2021/01/10 09:27:14;;;;;;;23.03;12.90;;;2.70;99.90;;;;;;5073386;28;20291;-74
2021/01/10 09:29:41;;;;;;;25.37;13.03;;;2.70;99.90;;;;;;5069516;28;20245;-74
2021/01/10 09:32:08;;;;;;;23.60;13.63;;;2.70;99.90;;;;;;5071448;28;20296;-71
2021/01/10 09:34:35;;;;;;;24.17;13.53;;;2.70;99.90;;;;;;5075260;28;20202;-72
2021/01/10 09:37:03;;;;;;;22.27;13.97;;;2.70;99.90;;;;;;5073077;28;20654;-71
2021/01/10 09:39:40;;;;;;;26.57;14.67;;;2.70;99.90;;;;;;5073599;28;20305;-72
2021/01/10 09:42:06;;;;;;;22.80;13.40;;;2.80;99.90;;;;;;5068514;28;20212;-71
2021/01/10 09:44:34;;;;;;;24.57;13.33;;;2.80;99.90;;;;;;5072831;28;20212;-73
2021/01/10 09:47:00;;;;;;;24.70;13.63;;;2.90;99.90;;;;;;5069502;28;20202;-72
2021/01/10 09:49:30;;;;;;;24.70;13.73;;;2.90;99.90;;;;;;5071310;28;20236;-74
2021/01/10 09:51:59;;;;;;;30.53;14.10;;;2.90;99.90;;;;;;5071457;28;20212;-74
2021/01/10 09:54:27;;;;;;;29.07;14.07;;;2.90;99.90;;;;;;5068289;28;20209;-73
2021/01/10 09:56:54;;;;;;;26.83;13.40;;;2.80;99.90;;;;;;5071858;28;20202;-73
2021/01/10 09:59:41;;;;;;;23.50;12.57;;;2.80;99.90;;;;;;5070087;28;20289;-73
2021/01/10 10:02:10;;;;;;;26.70;14.23;;;2.80;99.90;;;;;;5070058;28;20280;-73
2021/01/10 10:04:37;;;;;;;27.40;13.77;;;2.90;99.90;;;;;;5070238;28;20296;-73
2021/01/10 10:07:05;;;;;;;25.50;13.10;;;2.90;99.90;;;;;;5069848;28;20387;-73
2021/01/10 10:09:53;;;;;;;23.00;13.53;;;2.90;99.90;;;;;;5070435;28;20693;-72
2021/01/10 10:12:22;;;;;;;26.37;12.80;;;2.90;99.90;;;;;;5067033;28;20253;-73
2021/01/10 10:14:57;;;;;;;26.97;13.73;;;2.80;99.90;;;;;;5068946;28;20772;-74
2021/01/10 10:17:28;;;;;;;23.13;13.13;;;2.70;99.90;;;;;;5069447;28;20205;-75
2021/01/10 10:19:55;;;;;;;23.70;12.20;;;2.70;99.90;;;;;;5071500;28;20280;-73
2021/01/10 10:22:30;;;;;;;27.40;13.60;;;2.70;99.90;;;;;;5067900;28;20844;-73
2021/01/10 10:24:58;;;;;;;23.00;12.73;;;2.60;99.90;;;;;;5071476;28;20197;-74
2021/01/10 10:27:26;;;;;;;24.13;12.40;;;2.60;99.90;;;;;;5074437;28;20292;-75
2021/01/10 10:29:52;;;;;;;23.70;12.90;;;2.60;99.90;;;;;;5072453;28;20304;-76
2021/01/10 10:32:20;;;;;;;25.00;11.83;;;2.60;99.90;;;;;;5071214;28;20206;-74
2021/01/10 10:34:46;;;;;;;23.87;12.73;;;2.70;99.90;;;;;;5066385;28;20555;-71
2021/01/10 10:37:13;;;;;;;24.13;12.77;;;2.70;99.90;;;;;;5070632;28;20205;-73
2021/01/10 10:39:40;;;;;;;22.87;12.13;;;2.60;99.90;;;;;;5071457;28;20635;-74
2021/01/10 10:42:11;;;;;;;24.60;12.50;;;2.60;99.90;;;;;;5070590;28;20276;-73
2021/01/10 10:44:38;;;;;;;26.97;13.03;;;2.60;99.90;;;;;;5071142;28;20288;-74
2021/01/10 10:47:04;;;;;;;28.57;12.77;;;2.60;99.90;;;;;;5071522;28;20292;-73
2021/01/10 10:49:35;;;;;;;24.10;12.83;;;2.70;99.90;;;;;;5069448;28;20688;-73
2021/01/10 10:52:01;;;;;;;23.90;12.60;;;2.60;99.90;;;;;;5068317;28;20284;-73
2021/01/10 10:54:29;;;;;;;27.00;13.07;;;2.50;99.90;;;;;;5068130;28;20251;-73
2021/01/10 10:56:55;;;;;;;27.30;13.00;;;2.50;99.90;;;;;;5071808;28;20213;-74
2021/01/10 10:59:22;;;;;;;23.47;11.07;;;2.50;99.90;;;;;;5069569;28;20250;-73
2021/01/10 11:01:49;;;;;;;23.13;11.83;;;2.60;99.90;;;;;;5068598;28;20206;-72
2021/01/10 11:04:16;;;;;;;26.93;12.40;;;2.50;99.90;;;;;;5067600;28;20220;-71
2021/01/10 11:06:43;;;;;;;22.23;12.17;;;2.60;99.90;;;;;;5071672;28;20297;-72
2021/01/10 11:09:11;;;;;;;22.70;12.60;;;2.50;99.90;;;;;;5070898;28;20248;-73
2021/01/10 11:11:39;;;;;;;21.90;10.77;;;2.60;99.90;;;;;;5071583;28;20315;-73
2021/01/10 11:14:06;;;;;;;22.90;10.97;;;2.60;99.90;;;;;;5070458;28;20296;-72
2021/01/10 11:16:37;;;;;;;22.10;11.67;;;2.60;99.90;;;;;;5072111;28;20642;-73
2021/01/10 11:19:05;;;;;;;24.03;10.67;;;2.70;99.90;;;;;;5069563;28;20212;-72
2021/01/10 11:21:33;;;;;;;21.03;11.17;;;2.70;99.90;;;;;;5068179;28;20233;-75
2021/01/10 11:24:00;;;;;;;20.67;11.60;;;2.60;99.90;;;;;;5072707;28;20296;-77
2021/01/10 11:26:28;;;;;;;21.30;11.93;;;2.60;99.90;;;;;;5071265;28;20216;-72
2021/01/10 11:28:54;;;;;;;19.17;10.97;;;2.60;99.90;;;;;;5070378;28;20359;-74
2021/01/10 11:31:23;;;;;;;20.97;11.03;;;2.60;99.90;;;;;;5069989;28;20209;-75
2021/01/10 11:33:49;;;;;;;28.63;11.70;;;2.60;99.90;;;;;;5070809;28;20225;-75
2021/01/10 11:36:18;;;;;;;25.67;12.53;;;2.60;99.90;;;;;;5070190;28;20204;-73
2021/01/10 11:38:48;;;;;;;20.63;11.97;;;2.60;99.90;;;;;;5068093;28;20201;-73
2021/01/10 11:41:15;;;;;;;24.20;12.63;;;2.60;99.90;;;;;;5068180;28;20205;-72
2021/01/10 11:43:42;;;;;;;25.00;12.83;;;2.60;99.90;;;;;;5070002;28;20205;-76
2021/01/10 11:46:09;;;;;;;24.13;13.00;;;2.60;99.90;;;;;;5069602;28;20260;-72
2021/01/10 11:48:37;;;;;;;23.93;12.90;;;2.60;99.90;;;;;;5066312;28;20260;-73
2021/01/10 11:51:05;;;;;;;27.97;13.63;;;2.60;99.90;;;;;;5070365;28;20228;-72
2021/01/10 11:53:33;;;;;;;36.00;15.40;;;2.70;99.90;;;;;;5070586;28;20672;-75
2021/01/10 11:55:59;;;;;;;33.63;15.87;;;2.60;99.90;;;;;;5070520;28;20202;-72
2021/01/10 11:58:27;;;;;;;36.73;16.07;;;2.70;99.90;;;;;;5069694;28;20300;-73
2021/01/10 12:00:55;;;;;;;35.20;17.07;;;2.70;99.90;;;;;;5067461;28;20214;-71
2021/01/10 12:03:24;;;;;;;37.00;16.57;;;2.60;99.90;;;;;;5065518;28;20749;-71
2021/01/10 12:05:51;;;;;;;41.00;17.27;;;2.60;99.90;;;;;;5069780;28;20284;-74
2021/01/10 12:08:18;;;;;;;38.37;16.87;;;2.70;99.90;;;;;;5065303;28;20229;-72
2021/01/10 12:10:44;;;;;;;39.40;17.57;;;2.60;99.90;;;;;;5071490;28;20234;-74
2021/01/10 12:13:12;;;;;;;36.07;17.83;;;2.60;99.90;;;;;;5070454;28;20285;-72
2021/01/10 12:15:39;;;;;;;37.20;16.93;;;2.60;99.90;;;;;;5073516;28;20310;-74
2021/01/10 12:18:06;;;;;;;37.40;17.03;;;2.60;99.90;;;;;;5075110;28;20292;-73
2021/01/10 12:20:33;;;;;;;36.73;17.60;;;2.50;99.90;;;;;;5071979;28;20526;-73
2021/01/10 12:23:00;;;;;;;38.97;17.13;;;2.50;99.90;;;;;;5070925;28;20900;-73
2021/01/10 12:25:27;;;;;;;42.10;17.33;;;2.50;99.90;;;;;;5070544;28;20210;-72
2021/01/10 12:27:54;;;;;;;39.00;18.60;;;2.50;99.90;;;;;;5073263;28;20227;-72
2021/01/10 12:30:22;;;;;;;34.17;16.27;;;2.50;99.90;;;;;;5072882;28;20221;-73
2021/01/10 12:32:49;;;;;;;45.63;18.47;;;2.40;99.90;;;;;;5071535;28;20550;-73
2021/01/10 12:35:16;;;;;;;42.80;17.70;;;2.40;99.90;;;;;;5072112;28;20210;-73
2021/01/10 12:37:43;;;;;;;38.70;17.43;;;2.30;99.90;;;;;;5071145;28;20292;-73
2021/01/10 12:40:12;;;;;;;40.47;16.77;;;2.30;99.90;;;;;;5073700;28;20208;-72
2021/01/10 12:42:39;;;;;;;43.83;19.13;;;2.30;99.90;;;;;;5072588;28;20214;-71
2021/01/10 12:45:08;;;;;;;43.73;18.67;;;2.30;99.90;;;;;;5074119;28;20284;-72